createdAt,value
2023-03-18T00:00:02.580Z,11.7
2023-03-18T00:15:03.208Z,11.4
2023-03-18T00:30:02.433Z,11.2
2023-03-18T00:45:03.074Z,11.1
2023-03-18T01:00:02.375Z,10.9
2023-03-18T01:15:02.834Z,10.8
2023-03-18T01:30:02.271Z,10.6
2023-03-18T01:45:02.721Z,10.5
2023-03-18T02:00:03.192Z,10.4
2023-03-18T02:15:02.584Z,10.6
2023-03-18T02:30:03.093Z,10.8
2023-03-18T02:45:02.452Z,10.9
2023-03-18T03:00:03.111Z,11.0
2023-03-18T03:15:02.347Z,10.9
2023-03-18T03:30:02.815Z,10.9
2023-03-18T03:45:02.231Z,10.8
2023-03-18T04:00:02.687Z,10.7
2023-03-18T04:15:03.147Z,10.8
2023-03-18T04:30:02.554Z,10.7
2023-03-18T04:45:03.149Z,10.7
2023-03-18T05:00:02.425Z,10.6
2023-03-18T05:15:03.102Z,10.5
2023-03-18T05:45:02.771Z,10.4
2023-03-18T06:00:03.209Z,10.6
2023-03-18T06:15:02.621Z,10.5
2023-03-18T06:30:03.154Z,10.6
2023-03-18T06:45:02.514Z,10.7
2023-03-18T07:00:03.165Z,10.6
2023-03-18T07:15:02.411Z,10.6
2023-03-18T07:30:02.837Z,10.5
2023-03-18T07:45:02.256Z,10.7
2023-03-18T08:00:02.682Z,11.3
2023-03-18T08:15:03.165Z,11.5
2023-03-18T08:30:03.969Z,11.8
2023-03-18T09:00:02.463Z,12.7
2023-03-18T09:15:02.914Z,12.7
2023-03-18T09:30:02.328Z,13.0
2023-03-18T09:45:02.755Z,13.5
2023-03-18T10:00:03.236Z,13.5
2023-03-18T10:15:02.640Z,13.7
2023-03-18T10:30:03.202Z,14.0
2023-03-18T10:45:02.550Z,14.6
2023-03-18T11:00:03.223Z,16.5
2023-03-18T11:15:02.411Z,16.4
2023-03-18T11:30:02.868Z,16.1
2023-03-18T11:45:02.296Z,17.0
2023-03-18T12:00:02.739Z,16.7
2023-03-18T12:15:03.214Z,17.3
2023-03-18T12:30:02.632Z,17.0
2023-03-18T12:45:03.238Z,18.0
2023-03-18T13:00:02.486Z,17.8
2023-03-18T13:15:02.941Z,18.7
2023-03-18T13:30:02.344Z,19.5
2023-03-18T13:45:02.834Z,18.2
2023-03-18T14:00:02.231Z,17.8
2023-03-18T14:15:02.657Z,17.6
2023-03-18T14:30:03.221Z,17.8
2023-03-18T14:45:02.562Z,17.1
2023-03-18T15:00:03.186Z,17.7
2023-03-18T15:15:02.423Z,17.6
2023-03-18T15:30:02.887Z,17.1
2023-03-18T15:45:02.337Z,16.6
2023-03-18T16:00:02.790Z,16.2
2023-03-18T16:15:03.261Z,15.7
2023-03-18T16:30:02.714Z,15.5
2023-03-18T16:45:03.255Z,14.9
2023-03-18T17:00:02.510Z,14.6
2023-03-18T17:15:02.975Z,13.3
2023-03-18T17:30:02.423Z,11.6
2023-03-18T17:45:02.835Z,11.1
2023-03-18T18:00:02.285Z,10.7
2023-03-18T18:15:02.700Z,10.6
2023-03-18T18:30:03.452Z,10.4
2023-03-18T18:45:02.605Z,10.5
2023-03-18T19:00:03.248Z,10.1
2023-03-18T19:15:02.472Z,9.8
2023-03-18T19:30:02.897Z,9.4
2023-03-18T19:45:02.317Z,8.8
2023-03-18T20:00:02.752Z,8.3
2023-03-18T20:15:02.304Z,7.9
2023-03-18T20:30:02.651Z,7.7
2023-03-18T20:45:03.322Z,7.4
2023-03-18T21:00:02.523Z,7.3
2023-03-18T21:15:02.984Z,7.1
2023-03-18T21:30:02.394Z,6.8
2023-03-18T22:00:03.336Z,6.7
2023-03-18T22:15:02.705Z,6.5
2023-03-18T22:30:03.342Z,6.4
2023-03-18T22:45:02.566Z,6.4
2023-03-18T23:00:03.040Z,6.3
2023-03-18T23:15:02.460Z,6.0
2023-03-18T23:30:02.890Z,5.8
2023-03-18T23:45:02.388Z,5.8
